createdAt,value
2023-11-07T00:00:34.360Z,64.99
2023-11-07T00:05:34.420Z,58.08
2023-11-07T00:13:20.314Z,79.36
2023-11-07T00:17:59.330Z,73.69
2023-11-07T00:22:59.334Z,67.15
2023-11-07T00:27:59.203Z,62.58
2023-11-07T00:32:59.476Z,59.17
2023-11-07T00:37:58.989Z,57.92
2023-11-07T00:42:59.009Z,57.68
2023-11-07T00:47:59.083Z,58.72
2023-11-07T00:52:58.813Z,60.70
2023-11-07T00:57:58.757Z,60.74
2023-11-07T01:03:01.986Z,60.92
2023-11-07T01:07:58.641Z,65.14
2023-11-07T01:12:58.559Z,70.10
2023-11-07T01:17:58.544Z,69.81
2023-11-07T01:22:58.402Z,71.34
2023-11-07T01:27:58.335Z,73.89
2023-11-07T01:32:58.390Z,79.06
2023-11-07T01:37:58.215Z,83.50
2023-11-07T01:42:58.306Z,85.70
2023-11-07T01:47:58.152Z,87.29
2023-11-07T01:52:58.027Z,89.60
2023-11-07T01:57:58.027Z,92.14
2023-11-07T02:03:01.025Z,93.77
2023-11-07T02:07:57.764Z,93.94
2023-11-07T02:12:57.767Z,93.25
2023-11-07T02:17:57.775Z,93.98
2023-11-07T02:22:57.694Z,95.03
2023-11-07T02:27:57.543Z,93.73
2023-11-07T02:32:57.680Z,95.80
2023-11-07T02:37:57.409Z,96.29
2023-11-07T02:42:57.375Z,95.69
2023-11-07T02:47:57.348Z,95.15
2023-11-07T02:52:57.335Z,98.13
2023-11-07T02:57:57.186Z,100.64
2023-11-07T03:03:00.329Z,100.88
2023-11-07T03:07:57.154Z,101.73
2023-11-07T03:12:56.983Z,100.82
2023-11-07T03:17:56.926Z,100.22
2023-11-07T03:22:56.862Z,98.25
2023-11-07T03:27:56.735Z,100.22
2023-11-07T03:32:56.824Z,100.76
2023-11-07T03:37:56.707Z,98.47
2023-11-07T03:42:56.670Z,94.31
2023-11-07T03:47:56.593Z,94.94
2023-11-07T03:52:56.554Z,95.58
2023-11-07T03:57:56.399Z,96.79
2023-11-07T04:02:59.438Z,97.68
2023-11-07T04:07:56.320Z,97.96
2023-11-07T04:12:56.316Z,100.76
2023-11-07T04:17:56.296Z,102.71
2023-11-07T04:22:56.086Z,105.99
2023-11-07T04:27:56.101Z,107.33
2023-11-07T04:32:56.040Z,106.66
2023-11-07T04:37:55.984Z,108.57
2023-11-07T04:42:55.892Z,111.28
2023-11-07T04:47:55.917Z,114.68
2023-11-07T04:52:55.728Z,119.03
2023-11-07T04:57:55.653Z,122.12
2023-11-07T05:02:58.703Z,125.65
2023-11-07T05:07:55.499Z,130.19
2023-11-07T05:12:55.482Z,132.12
2023-11-07T05:17:55.560Z,133.05
2023-11-07T05:22:55.398Z,135.93
2023-11-07T05:27:55.197Z,137.03
2023-11-07T05:32:55.265Z,139.40
2023-11-07T05:37:55.148Z,141.26
2023-11-07T05:42:55.086Z,139.40
2023-11-07T05:47:55.012Z,138.60
2023-11-07T05:52:54.909Z,136.81
2023-11-07T05:57:54.899Z,134.32
2023-11-07T06:02:57.875Z,129.99
2023-11-07T06:07:54.651Z,128.61
2023-11-07T06:12:54.827Z,125.37
2023-11-07T06:17:54.688Z,125.00
2023-11-07T06:22:54.474Z,125.18
2023-11-07T06:27:54.376Z,126.78
2023-11-07T06:32:54.412Z,124.18
2023-11-07T06:37:54.419Z,123.81
2023-11-07T06:42:54.215Z,125.83
2023-11-07T06:47:54.182Z,129.99
2023-11-07T06:52:54.129Z,131.91
2023-11-07T06:57:54.129Z,134.64
2023-11-07T07:02:58.324Z,135.93
2023-11-07T07:07:53.999Z,135.50
2023-11-07T07:12:53.873Z,140.68
2023-11-07T07:17:53.884Z,146.26
2023-11-07T07:22:53.851Z,143.29
2023-11-07T07:27:54.934Z,144.39
2023-11-07T07:32:53.649Z,148.18
2023-11-07T07:37:54.190Z,152.32
2023-11-07T07:42:53.492Z,157.41
2023-11-07T07:47:53.427Z,157.85
2023-11-07T07:52:53.313Z,160.09
2023-11-07T07:57:53.195Z,162.70
2023-11-07T08:02:56.185Z,161.46
2023-11-07T08:07:53.056Z,159.19
2023-11-07T08:12:53.035Z,159.49
2023-11-07T08:17:53.024Z,160.24
2023-11-07T08:22:53.064Z,159.04
2023-11-07T08:27:52.840Z,159.19
2023-11-07T08:32:52.963Z,157.56
2023-11-07T08:37:52.660Z,155.39
2023-11-07T08:42:52.656Z,154.82
2023-11-07T08:47:52.671Z,155.68
2023-11-07T08:52:52.525Z,153.00
2023-11-07T08:57:52.395Z,153.14
2023-11-07T09:02:55.562Z,155.10
2023-11-07T09:07:52.334Z,163.96
2023-11-07T09:12:52.285Z,169.71
2023-11-07T09:17:52.152Z,169.71
2023-11-07T09:22:52.135Z,164.28
2023-11-07T09:27:52.044Z,164.60
2023-11-07T09:32:52.447Z,169.88
2023-11-07T09:37:51.884Z,173.54
2023-11-07T09:42:51.849Z,180.38
2023-11-07T09:47:52.132Z,180.76
2023-11-07T09:52:51.718Z,178.48
2023-11-07T09:57:56.243Z,178.66
2023-11-07T10:02:55.668Z,185.59
2023-11-07T10:07:51.480Z,192.01
2023-11-07T10:12:51.468Z,195.05
2023-11-07T10:17:51.429Z,195.27
2023-11-07T10:22:51.377Z,189.82
2023-11-07T10:27:51.237Z,186.84
2023-11-07T10:32:51.242Z,185.72
2023-11-07T10:37:51.095Z,181.93
2023-11-07T10:42:51.046Z,178.85
2023-11-07T10:47:51.037Z,176.07
2023-11-07T10:52:50.897Z,175.15
2023-11-07T10:57:51.079Z,173.72
2023-11-07T11:02:53.803Z,171.78
2023-11-07T11:07:50.659Z,170.05
2023-11-07T11:12:50.601Z,166.71
2023-11-07T11:17:50.605Z,168.20
2023-11-07T11:22:50.520Z,170.57
2023-11-07T11:27:50.396Z,173.54
2023-11-07T11:32:50.409Z,174.25
2023-11-07T11:37:50.256Z,175.70
2023-11-07T11:42:50.255Z,176.80
2023-11-07T11:47:50.286Z,173.36
2023-11-07T11:52:50.121Z,169.54
2023-11-07T11:57:49.992Z,165.40
2023-11-07T12:02:53.211Z,170.40
2023-11-07T12:07:49.937Z,170.05
2023-11-07T12:12:49.849Z,167.37
2023-11-07T12:17:49.819Z,167.86
2023-11-07T12:22:49.723Z,169.04
2023-11-07T12:27:49.608Z,172.48
2023-11-07T12:32:49.708Z,170.74
2023-11-07T12:37:49.399Z,170.57
2023-11-07T12:42:49.404Z,171.43
2023-11-07T12:47:49.405Z,169.71
2023-11-07T12:52:49.291Z,168.03
2023-11-07T12:57:49.175Z,169.21
2023-11-07T13:02:52.287Z,167.86
2023-11-07T13:07:49.109Z,162.39
2023-11-07T13:12:49.076Z,161.31
2023-11-07T13:17:48.935Z,155.25
2023-11-07T13:22:48.881Z,150.96
2023-11-07T13:27:48.763Z,148.18
2023-11-07T13:32:48.892Z,147.28
2023-11-07T13:37:48.672Z,144.52
2023-11-07T13:42:48.648Z,144.64
2023-11-07T13:47:48.547Z,141.85
2023-11-07T13:52:48.462Z,138.38
2023-11-07T13:57:48.386Z,126.97
2023-11-07T14:02:51.484Z,123.63
2023-11-07T14:07:48.234Z,125.46
2023-11-07T14:12:48.477Z,126.02
2023-11-07T14:17:48.199Z,126.59
2023-11-07T14:22:48.272Z,125.93
2023-11-07T14:27:47.980Z,126.78
2023-11-07T14:32:48.041Z,126.02
2023-11-07T14:37:47.859Z,123.72
2023-11-07T14:42:47.839Z,122.74
2023-11-07T14:47:47.736Z,120.89
2023-11-07T14:52:47.741Z,118.94
2023-11-07T14:57:47.588Z,117.29
2023-11-07T15:02:50.596Z,116.01
2023-11-07T15:07:47.491Z,114.29
2023-11-07T15:12:47.484Z,111.43
2023-11-07T15:17:47.371Z,108.85
2023-11-07T15:22:47.352Z,106.59
2023-11-07T15:27:47.174Z,106.46
2023-11-07T15:32:47.244Z,105.60
2023-11-07T15:37:47.024Z,104.49
2023-11-07T15:42:47.041Z,102.40
2023-11-07T15:47:47.140Z,102.53
2023-11-07T15:52:55.921Z,102.16
2023-11-07T15:57:47.844Z,101.42
2023-11-07T16:02:49.807Z,99.34
2023-11-07T16:07:46.748Z,97.01
2023-11-07T16:12:46.610Z,94.41
2023-11-07T16:17:46.601Z,94.50
2023-11-07T16:22:46.501Z,94.18
2023-11-07T16:27:46.457Z,90.85
2023-11-07T16:32:46.402Z,89.04
2023-11-07T16:37:46.245Z,87.56
2023-11-07T16:42:46.352Z,84.67
2023-11-07T16:47:46.262Z,83.67
2023-11-07T16:52:46.074Z,83.50
2023-11-07T16:57:46.309Z,82.37
2023-11-07T17:02:49.405Z,81.03
2023-11-07T17:07:45.892Z,79.66
2023-11-07T17:12:45.862Z,78.04
2023-11-07T17:17:46.004Z,77.97
2023-11-07T17:22:45.750Z,72.68
2023-11-07T17:27:45.586Z,56.98
2023-11-07T17:32:45.567Z,47.55
2023-11-07T17:37:45.405Z,43.21
2023-11-07T17:42:45.543Z,40.68
2023-11-07T17:47:45.326Z,39.17
2023-11-07T17:52:45.332Z,38.05
2023-11-07T17:57:45.159Z,37.54
2023-11-07T18:02:48.141Z,37.44
2023-11-07T18:07:44.997Z,36.99
2023-11-07T18:12:44.980Z,36.76
2023-11-07T18:17:44.930Z,36.83
2023-11-07T18:22:44.812Z,36.92
2023-11-07T18:27:44.740Z,39.14
2023-11-07T18:32:44.862Z,44.20
2023-11-07T18:37:44.599Z,49.06
2023-11-07T18:42:44.588Z,52.66
2023-11-07T18:47:46.857Z,52.96
2023-11-07T18:52:44.519Z,53.26
2023-11-07T18:57:44.322Z,56.41
2023-11-07T19:02:47.299Z,54.38
2023-11-07T19:07:44.173Z,51.79
2023-11-07T19:12:44.254Z,50.83
2023-11-07T19:17:44.137Z,50.11
2023-11-07T19:22:44.021Z,50.40
2023-11-07T19:27:43.931Z,49.72
2023-11-07T19:32:43.908Z,48.86
2023-11-07T19:37:43.892Z,48.42
2023-11-07T19:42:43.873Z,48.53
2023-11-07T19:47:43.836Z,48.78
2023-11-07T19:52:46.188Z,48.58
2023-11-07T19:57:43.556Z,49.49
2023-11-07T20:02:46.590Z,50.86
2023-11-07T20:07:51.228Z,52.60
2023-11-07T20:12:44.365Z,53.46
2023-11-07T20:17:43.348Z,55.24
2023-11-07T20:22:43.281Z,55.78
2023-11-07T20:27:43.284Z,57.41
2023-11-07T20:32:43.154Z,59.09
2023-11-07T20:37:43.203Z,59.01
2023-11-07T20:42:43.258Z,58.64
2023-11-07T20:47:42.966Z,57.53
2023-11-07T20:52:42.865Z,56.49
2023-11-07T20:57:46.649Z,58.12
2023-11-07T21:02:47.038Z,58.28
2023-11-07T21:07:42.661Z,58.93
2023-11-07T21:12:42.648Z,58.76
2023-11-07T21:17:42.580Z,58.12
2023-11-07T21:22:42.528Z,56.94
2023-11-07T21:27:42.396Z,56.56
2023-11-07T21:32:42.347Z,56.30
2023-11-07T21:37:42.245Z,56.23
2023-11-07T21:42:42.330Z,56.79
2023-11-07T21:47:42.134Z,55.56
2023-11-07T21:52:42.087Z,56.75
2023-11-07T21:57:42.034Z,56.41
2023-11-07T22:02:45.059Z,55.89
2023-11-07T22:07:41.902Z,55.82
2023-11-07T22:12:41.923Z,54.84
2023-11-07T22:17:41.793Z,53.87
2023-11-07T22:22:41.774Z,53.06
2023-11-07T22:27:41.655Z,52.27
2023-11-07T22:32:41.884Z,51.98
2023-11-07T22:37:41.459Z,51.98
2023-11-07T22:42:41.924Z,52.33
2023-11-07T22:47:41.482Z,51.29
2023-11-07T22:52:41.384Z,50.62
2023-11-07T22:57:41.316Z,50.49
2023-11-07T23:02:44.228Z,49.52
2023-11-07T23:07:41.058Z,48.67
2023-11-07T23:12:41.101Z,48.81
2023-11-07T23:17:41.157Z,49.23
2023-11-07T23:22:41.556Z,50.02
2023-11-07T23:27:40.867Z,50.52
2023-11-07T23:32:40.932Z,50.37
2023-11-07T23:37:40.694Z,50.74
2023-11-07T23:42:40.711Z,51.63
2023-11-07T23:47:40.638Z,51.85
2023-11-07T23:52:40.890Z,52.30
2023-11-07T23:57:40.442Z,53.09
